sensor_id;sensor_type;location;lat;lon;timestamp;P1;durP1;ratioP1;P2;durP2;ratioP2
13122;SDS011;6627;50.920;12.050;2023-04-30T00:00:08;25.07;;;18.17;;
13122;SDS011;6627;50.920;12.050;2023-04-30T00:02:36;22.10;;;18.23;;
13122;SDS011;6627;50.920;12.050;2023-04-30T00:05:04;21.60;;;17.97;;
13122;SDS011;6627;50.920;12.050;2023-04-30T00:07:32;21.50;;;18.20;;
13122;SDS011;6627;50.920;12.050;2023-04-30T00:09:59;20.53;;;18.27;;
13122;SDS011;6627;50.920;12.050;2023-04-30T00:12:26;20.87;;;17.20;;
13122;SDS011;6627;50.920;12.050;2023-04-30T00:14:54;21.37;;;17.03;;
13122;SDS011;6627;50.920;12.050;2023-04-30T00:17:23;21.73;;;17.80;;
13122;SDS011;6627;50.920;12.050;2023-04-30T00:19:50;21.67;;;16.87;;
13122;SDS011;6627;50.920;12.050;2023-04-30T00:22:18;23.83;;;17.80;;
13122;SDS011;6627;50.920;12.050;2023-04-30T00:24:45;19.97;;;16.07;;
13122;SDS011;6627;50.920;12.050;2023-04-30T00:27:12;18.77;;;15.27;;
13122;SDS011;6627;50.920;12.050;2023-04-30T00:29:40;17.93;;;14.17;;
13122;SDS011;6627;50.920;12.050;2023-04-30T00:32:07;16.50;;;13.07;;
13122;SDS011;6627;50.920;12.050;2023-04-30T00:34:36;14.43;;;11.43;;
13122;SDS011;6627;50.920;12.050;2023-04-30T00:37:03;14.10;;;10.50;;
13122;SDS011;6627;50.920;12.050;2023-04-30T00:39:31;10.47;;;8.33;;
13122;SDS011;6627;50.920;12.050;2023-04-30T00:42:10;12.47;;;8.20;;
13122;SDS011;6627;50.920;12.050;2023-04-30T00:44:37;9.77;;;8.50;;
13122;SDS011;6627;50.920;12.050;2023-04-30T00:47:04;9.10;;;8.20;;
13122;SDS011;6627;50.920;12.050;2023-04-30T00:49:32;9.03;;;7.30;;
13122;SDS011;6627;50.920;12.050;2023-04-30T00:52:01;8.00;;;6.83;;
13122;SDS011;6627;50.920;12.050;2023-04-30T00:54:28;11.17;;;7.23;;
13122;SDS011;6627;50.920;12.050;2023-04-30T00:56:55;7.60;;;6.87;;
13122;SDS011;6627;50.920;12.050;2023-04-30T00:59:24;7.80;;;6.53;;
13122;SDS011;6627;50.920;12.050;2023-04-30T01:01:53;9.03;;;6.33;;
13122;SDS011;6627;50.920;12.050;2023-04-30T01:04:21;8.77;;;6.80;;
13122;SDS011;6627;50.920;12.050;2023-04-30T01:06:49;8.83;;;6.53;;
13122;SDS011;6627;50.920;12.050;2023-04-30T01:09:18;9.20;;;6.50;;
13122;SDS011;6627;50.920;12.050;2023-04-30T01:11:47;7.97;;;7.17;;
13122;SDS011;6627;50.920;12.050;2023-04-30T01:14:32;7.53;;;6.70;;
13122;SDS011;6627;50.920;12.050;2023-04-30T01:17:20;8.40;;;7.50;;
13122;SDS011;6627;50.920;12.050;2023-04-30T01:19:57;8.87;;;7.60;;
13122;SDS011;6627;50.920;12.050;2023-04-30T01:22:29;7.77;;;6.57;;
13122;SDS011;6627;50.920;12.050;2023-04-30T01:25:24;8.97;;;6.40;;
13122;SDS011;6627;50.920;12.050;2023-04-30T01:28:17;8.50;;;6.47;;
13122;SDS011;6627;50.920;12.050;2023-04-30T01:30:46;7.47;;;6.33;;
13122;SDS011;6627;50.920;12.050;2023-04-30T01:33:13;6.40;;;5.80;;
13122;SDS011;6627;50.920;12.050;2023-04-30T01:35:51;9.00;;;6.63;;
13122;SDS011;6627;50.920;12.050;2023-04-30T01:38:45;7.93;;;5.53;;
13122;SDS011;6627;50.920;12.050;2023-04-30T01:41:29;10.33;;;6.07;;
13122;SDS011;6627;50.920;12.050;2023-04-30T01:44:12;10.73;;;6.67;;
13122;SDS011;6627;50.920;12.050;2023-04-30T01:46:56;8.40;;;6.33;;
13122;SDS011;6627;50.920;12.050;2023-04-30T01:49:31;9.03;;;6.57;;
13122;SDS011;6627;50.920;12.050;2023-04-30T01:52:17;8.60;;;6.70;;
13122;SDS011;6627;50.920;12.050;2023-04-30T01:54:54;8.23;;;6.97;;
13122;SDS011;6627;50.920;12.050;2023-04-30T01:57:27;9.70;;;7.03;;
13122;SDS011;6627;50.920;12.050;2023-04-30T02:00:00;9.83;;;6.70;;
13122;SDS011;6627;50.920;12.050;2023-04-30T02:02:29;9.40;;;6.60;;
13122;SDS011;6627;50.920;12.050;2023-04-30T02:04:57;9.33;;;7.30;;
13122;SDS011;6627;50.920;12.050;2023-04-30T02:07:29;8.93;;;6.93;;
13122;SDS011;6627;50.920;12.050;2023-04-30T02:10:05;7.07;;;6.30;;
13122;SDS011;6627;50.920;12.050;2023-04-30T02:12:34;11.73;;;7.33;;
13122;SDS011;6627;50.920;12.050;2023-04-30T02:15:03;10.33;;;7.60;;
13122;SDS011;6627;50.920;12.050;2023-04-30T02:17:32;9.70;;;7.00;;
13122;SDS011;6627;50.920;12.050;2023-04-30T02:19:59;9.57;;;8.43;;
13122;SDS011;6627;50.920;12.050;2023-04-30T02:22:27;11.77;;;9.83;;
13122;SDS011;6627;50.920;12.050;2023-04-30T02:24:54;10.87;;;8.80;;
13122;SDS011;6627;50.920;12.050;2023-04-30T02:27:22;14.13;;;10.10;;
13122;SDS011;6627;50.920;12.050;2023-04-30T02:29:51;11.40;;;8.40;;
13122;SDS011;6627;50.920;12.050;2023-04-30T02:32:20;11.97;;;8.23;;
13122;SDS011;6627;50.920;12.050;2023-04-30T02:34:47;9.17;;;7.17;;
13122;SDS011;6627;50.920;12.050;2023-04-30T02:37:14;9.13;;;7.40;;
13122;SDS011;6627;50.920;12.050;2023-04-30T02:39:42;11.47;;;7.37;;
13122;SDS011;6627;50.920;12.050;2023-04-30T02:42:09;11.03;;;7.13;;
13122;SDS011;6627;50.920;12.050;2023-04-30T02:44:48;9.43;;;6.60;;
13122;SDS011;6627;50.920;12.050;2023-04-30T02:47:15;11.60;;;7.17;;
13122;SDS011;6627;50.920;12.050;2023-04-30T02:49:43;9.67;;;6.80;;
13122;SDS011;6627;50.920;12.050;2023-04-30T02:52:22;9.60;;;7.20;;
13122;SDS011;6627;50.920;12.050;2023-04-30T02:54:49;11.13;;;7.10;;
13122;SDS011;6627;50.920;12.050;2023-04-30T02:57:16;11.83;;;8.23;;
13122;SDS011;6627;50.920;12.050;2023-04-30T02:59:43;10.97;;;8.03;;
13122;SDS011;6627;50.920;12.050;2023-04-30T03:02:10;12.20;;;8.83;;
13122;SDS011;6627;50.920;12.050;2023-04-30T03:04:37;10.23;;;8.13;;
13122;SDS011;6627;50.920;12.050;2023-04-30T03:07:06;11.43;;;8.47;;
13122;SDS011;6627;50.920;12.050;2023-04-30T03:09:33;11.73;;;8.43;;
13122;SDS011;6627;50.920;12.050;2023-04-30T03:12:01;13.93;;;9.20;;
13122;SDS011;6627;50.920;12.050;2023-04-30T03:14:29;12.67;;;9.07;;
13122;SDS011;6627;50.920;12.050;2023-04-30T03:16:56;16.07;;;10.47;;
13122;SDS011;6627;50.920;12.050;2023-04-30T03:19:23;15.27;;;10.07;;
13122;SDS011;6627;50.920;12.050;2023-04-30T03:21:50;16.87;;;10.03;;
13122;SDS011;6627;50.920;12.050;2023-04-30T03:24:19;13.83;;;9.50;;
13122;SDS011;6627;50.920;12.050;2023-04-30T03:26:46;13.63;;;9.23;;
13122;SDS011;6627;50.920;12.050;2023-04-30T03:29:14;13.47;;;10.03;;
13122;SDS011;6627;50.920;12.050;2023-04-30T03:31:42;16.50;;;10.60;;
13122;SDS011;6627;50.920;12.050;2023-04-30T03:34:09;14.37;;;10.70;;
13122;SDS011;6627;50.920;12.050;2023-04-30T03:36:36;17.87;;;10.53;;
13122;SDS011;6627;50.920;12.050;2023-04-30T03:39:04;14.20;;;11.23;;
13122;SDS011;6627;50.920;12.050;2023-04-30T03:41:35;15.13;;;10.97;;
13122;SDS011;6627;50.920;12.050;2023-04-30T03:44:02;22.40;;;11.47;;
13122;SDS011;6627;50.920;12.050;2023-04-30T03:46:30;16.73;;;11.70;;
13122;SDS011;6627;50.920;12.050;2023-04-30T03:48:57;16.20;;;11.40;;
13122;SDS011;6627;50.920;12.050;2023-04-30T03:51:24;18.70;;;11.80;;
13122;SDS011;6627;50.920;12.050;2023-04-30T03:53:52;19.90;;;12.97;;
13122;SDS011;6627;50.920;12.050;2023-04-30T03:56:20;18.37;;;12.23;;
13122;SDS011;6627;50.920;12.050;2023-04-30T03:58:49;26.23;;;12.93;;
13122;SDS011;6627;50.920;12.050;2023-04-30T04:01:16;21.37;;;13.50;;
13122;SDS011;6627;50.920;12.050;2023-04-30T04:03:44;18.73;;;12.83;;
13122;SDS011;6627;50.920;12.050;2023-04-30T04:06:11;19.50;;;12.20;;
13122;SDS011;6627;50.920;12.050;2023-04-30T04:08:39;24.33;;;12.37;;
13122;SDS011;6627;50.920;12.050;2023-04-30T04:11:08;16.37;;;12.57;;
13122;SDS011;6627;50.920;12.050;2023-04-30T04:13:35;24.47;;;12.40;;
13122;SDS011;6627;50.920;12.050;2023-04-30T04:16:04;15.87;;;11.87;;
13122;SDS011;6627;50.920;12.050;2023-04-30T04:18:33;15.63;;;11.80;;
13122;SDS011;6627;50.920;12.050;2023-04-30T04:21:00;18.30;;;11.53;;
13122;SDS011;6627;50.920;12.050;2023-04-30T04:23:28;17.83;;;12.63;;
13122;SDS011;6627;50.920;12.050;2023-04-30T04:25:56;15.60;;;12.23;;
13122;SDS011;6627;50.920;12.050;2023-04-30T04:28:24;19.23;;;12.63;;
13122;SDS011;6627;50.920;12.050;2023-04-30T04:30:51;20.00;;;13.80;;
13122;SDS011;6627;50.920;12.050;2023-04-30T04:33:20;22.63;;;14.00;;
13122;SDS011;6627;50.920;12.050;2023-04-30T04:35:47;22.93;;;15.13;;
13122;SDS011;6627;50.920;12.050;2023-04-30T04:38:14;19.17;;;14.47;;
13122;SDS011;6627;50.920;12.050;2023-04-30T04:40:49;23.17;;;14.90;;
13122;SDS011;6627;50.920;12.050;2023-04-30T04:43:17;21.47;;;15.33;;
13122;SDS011;6627;50.920;12.050;2023-04-30T04:45:45;18.20;;;13.67;;
13122;SDS011;6627;50.920;12.050;2023-04-30T04:48:13;24.63;;;15.10;;
13122;SDS011;6627;50.920;12.050;2023-04-30T04:50:42;23.20;;;15.50;;
13122;SDS011;6627;50.920;12.050;2023-04-30T04:53:09;23.93;;;15.70;;
13122;SDS011;6627;50.920;12.050;2023-04-30T04:55:36;23.50;;;15.73;;
13122;SDS011;6627;50.920;12.050;2023-04-30T04:58:04;22.77;;;14.80;;
13122;SDS011;6627;50.920;12.050;2023-04-30T05:00:31;23.37;;;14.60;;
13122;SDS011;6627;50.920;12.050;2023-04-30T05:02:59;24.43;;;15.43;;
13122;SDS011;6627;50.920;12.050;2023-04-30T05:05:26;23.53;;;14.57;;
13122;SDS011;6627;50.920;12.050;2023-04-30T05:07:55;23.43;;;14.60;;
13122;SDS011;6627;50.920;12.050;2023-04-30T05:10:22;20.33;;;13.37;;
13122;SDS011;6627;50.920;12.050;2023-04-30T05:12:49;22.13;;;14.17;;
13122;SDS011;6627;50.920;12.050;2023-04-30T05:15:16;23.17;;;12.83;;
13122;SDS011;6627;50.920;12.050;2023-04-30T05:17:43;17.27;;;12.53;;
13122;SDS011;6627;50.920;12.050;2023-04-30T05:20:11;16.97;;;13.30;;
13122;SDS011;6627;50.920;12.050;2023-04-30T05:22:38;16.57;;;12.47;;
13122;SDS011;6627;50.920;12.050;2023-04-30T05:25:08;20.30;;;12.93;;
13122;SDS011;6627;50.920;12.050;2023-04-30T05:27:36;17.80;;;12.07;;
13122;SDS011;6627;50.920;12.050;2023-04-30T05:30:04;15.73;;;11.77;;
13122;SDS011;6627;50.920;12.050;2023-04-30T05:32:33;16.47;;;12.13;;
13122;SDS011;6627;50.920;12.050;2023-04-30T05:35:01;18.83;;;12.30;;
13122;SDS011;6627;50.920;12.050;2023-04-30T05:37:28;16.17;;;11.57;;
13122;SDS011;6627;50.920;12.050;2023-04-30T05:39:55;14.63;;;11.37;;
13122;SDS011;6627;50.920;12.050;2023-04-30T05:42:23;16.70;;;11.07;;
13122;SDS011;6627;50.920;12.050;2023-04-30T05:44:51;16.37;;;10.70;;
13122;SDS011;6627;50.920;12.050;2023-04-30T05:47:18;20.03;;;11.13;;
13122;SDS011;6627;50.920;12.050;2023-04-30T05:49:46;14.33;;;10.37;;
13122;SDS011;6627;50.920;12.050;2023-04-30T05:52:13;12.90;;;9.80;;
13122;SDS011;6627;50.920;12.050;2023-04-30T05:54:42;14.23;;;9.77;;
13122;SDS011;6627;50.920;12.050;2023-04-30T05:57:09;14.20;;;9.87;;
13122;SDS011;6627;50.920;12.050;2023-04-30T05:59:37;17.03;;;10.17;;
13122;SDS011;6627;50.920;12.050;2023-04-30T06:02:05;14.13;;;8.53;;
13122;SDS011;6627;50.920;12.050;2023-04-30T06:04:32;12.20;;;9.23;;
13122;SDS011;6627;50.920;12.050;2023-04-30T06:07:00;12.20;;;8.53;;
13122;SDS011;6627;50.920;12.050;2023-04-30T06:09:27;11.77;;;7.57;;
13122;SDS011;6627;50.920;12.050;2023-04-30T06:11:55;13.37;;;7.73;;
13122;SDS011;6627;50.920;12.050;2023-04-30T06:14:22;12.97;;;7.60;;
13122;SDS011;6627;50.920;12.050;2023-04-30T06:16:50;11.60;;;7.80;;
13122;SDS011;6627;50.920;12.050;2023-04-30T06:19:18;12.40;;;8.27;;
13122;SDS011;6627;50.920;12.050;2023-04-30T06:21:45;12.40;;;7.70;;
13122;SDS011;6627;50.920;12.050;2023-04-30T06:24:12;11.27;;;8.07;;
13122;SDS011;6627;50.920;12.050;2023-04-30T06:26:39;15.33;;;8.37;;
13122;SDS011;6627;50.920;12.050;2023-04-30T06:29:06;16.07;;;7.97;;
13122;SDS011;6627;50.920;12.050;2023-04-30T06:31:34;16.33;;;8.43;;
13122;SDS011;6627;50.920;12.050;2023-04-30T06:34:03;14.07;;;7.67;;
13122;SDS011;6627;50.920;12.050;2023-04-30T06:36:30;16.93;;;8.07;;
13122;SDS011;6627;50.920;12.050;2023-04-30T06:38:57;14.27;;;7.90;;
13122;SDS011;6627;50.920;12.050;2023-04-30T06:41:26;13.27;;;7.27;;
13122;SDS011;6627;50.920;12.050;2023-04-30T06:43:53;11.93;;;7.67;;
13122;SDS011;6627;50.920;12.050;2023-04-30T06:46:20;17.57;;;7.57;;
13122;SDS011;6627;50.920;12.050;2023-04-30T06:48:48;12.20;;;6.93;;
13122;SDS011;6627;50.920;12.050;2023-04-30T06:51:16;15.07;;;7.27;;
13122;SDS011;6627;50.920;12.050;2023-04-30T06:53:44;11.90;;;6.90;;
13122;SDS011;6627;50.920;12.050;2023-04-30T06:56:11;9.93;;;6.90;;
13122;SDS011;6627;50.920;12.050;2023-04-30T06:58:38;10.30;;;6.53;;
13122;SDS011;6627;50.920;12.050;2023-04-30T07:01:05;16.53;;;7.97;;
13122;SDS011;6627;50.920;12.050;2023-04-30T07:03:32;13.47;;;7.60;;
13122;SDS011;6627;50.920;12.050;2023-04-30T07:06:00;13.73;;;7.40;;
13122;SDS011;6627;50.920;12.050;2023-04-30T07:08:30;11.77;;;7.33;;
13122;SDS011;6627;50.920;12.050;2023-04-30T07:10:57;11.20;;;7.57;;
13122;SDS011;6627;50.920;12.050;2023-04-30T07:13:24;10.23;;;7.53;;
13122;SDS011;6627;50.920;12.050;2023-04-30T07:15:51;9.47;;;6.87;;
13122;SDS011;6627;50.920;12.050;2023-04-30T07:18:20;10.00;;;7.70;;
13122;SDS011;6627;50.920;12.050;2023-04-30T07:20:47;10.87;;;7.17;;
13122;SDS011;6627;50.920;12.050;2023-04-30T07:23:15;12.23;;;6.90;;
13122;SDS011;6627;50.920;12.050;2023-04-30T07:25:43;12.83;;;6.60;;
13122;SDS011;6627;50.920;12.050;2023-04-30T07:28:11;10.93;;;6.90;;
13122;SDS011;6627;50.920;12.050;2023-04-30T07:30:38;12.63;;;6.83;;
13122;SDS011;6627;50.920;12.050;2023-04-30T07:33:06;15.20;;;8.53;;
13122;SDS011;6627;50.920;12.050;2023-04-30T07:35:35;10.60;;;6.47;;
13122;SDS011;6627;50.920;12.050;2023-04-30T07:38:02;9.90;;;6.50;;
13122;SDS011;6627;50.920;12.050;2023-04-30T07:40:30;9.73;;;6.70;;
13122;SDS011;6627;50.920;12.050;2023-04-30T07:42:58;9.67;;;6.63;;
13122;SDS011;6627;50.920;12.050;2023-04-30T07:45:45;8.73;;;6.37;;
13122;SDS011;6627;50.920;12.050;2023-04-30T07:48:14;7.40;;;6.00;;
13122;SDS011;6627;50.920;12.050;2023-04-30T07:50:41;11.83;;;6.00;;
13122;SDS011;6627;50.920;12.050;2023-04-30T07:53:09;10.10;;;5.83;;
13122;SDS011;6627;50.920;12.050;2023-04-30T07:55:37;9.47;;;5.87;;
13122;SDS011;6627;50.920;12.050;2023-04-30T07:58:05;8.70;;;5.97;;
13122;SDS011;6627;50.920;12.050;2023-04-30T08:00:33;10.10;;;6.17;;
13122;SDS011;6627;50.920;12.050;2023-04-30T08:03:00;7.70;;;5.70;;
13122;SDS011;6627;50.920;12.050;2023-04-30T08:05:27;10.00;;;5.63;;
13122;SDS011;6627;50.920;12.050;2023-04-30T08:07:54;13.03;;;6.30;;
13122;SDS011;6627;50.920;12.050;2023-04-30T08:10:22;12.30;;;5.77;;
13122;SDS011;6627;50.920;12.050;2023-04-30T08:12:49;10.77;;;6.30;;
13122;SDS011;6627;50.920;12.050;2023-04-30T08:15:18;11.03;;;6.17;;
13122;SDS011;6627;50.920;12.050;2023-04-30T08:17:47;9.97;;;6.03;;
13122;SDS011;6627;50.920;12.050;2023-04-30T08:20:15;10.70;;;6.90;;
13122;SDS011;6627;50.920;12.050;2023-04-30T08:22:43;14.33;;;7.30;;
13122;SDS011;6627;50.920;12.050;2023-04-30T08:25:10;12.40;;;6.43;;
13122;SDS011;6627;50.920;12.050;2023-04-30T08:27:38;12.73;;;5.60;;
13122;SDS011;6627;50.920;12.050;2023-04-30T08:30:05;12.80;;;6.10;;
13122;SDS011;6627;50.920;12.050;2023-04-30T08:32:35;10.33;;;5.73;;
13122;SDS011;6627;50.920;12.050;2023-04-30T08:35:03;10.00;;;5.07;;
13122;SDS011;6627;50.920;12.050;2023-04-30T08:37:32;10.93;;;5.53;;
13122;SDS011;6627;50.920;12.050;2023-04-30T08:40:00;12.03;;;5.40;;
13122;SDS011;6627;50.920;12.050;2023-04-30T08:42:28;8.30;;;6.10;;
13122;SDS011;6627;50.920;12.050;2023-04-30T08:45:01;9.40;;;5.13;;
13122;SDS011;6627;50.920;12.050;2023-04-30T08:47:30;8.90;;;5.30;;
13122;SDS011;6627;50.920;12.050;2023-04-30T08:50:00;10.77;;;5.17;;
13122;SDS011;6627;50.920;12.050;2023-04-30T08:52:27;9.77;;;5.00;;
13122;SDS011;6627;50.920;12.050;2023-04-30T08:54:56;15.03;;;4.87;;
13122;SDS011;6627;50.920;12.050;2023-04-30T08:57:27;8.13;;;4.77;;
13122;SDS011;6627;50.920;12.050;2023-04-30T08:59:56;9.67;;;5.00;;
13122;SDS011;6627;50.920;12.050;2023-04-30T09:02:23;8.77;;;4.70;;
13122;SDS011;6627;50.920;12.050;2023-04-30T09:05:12;9.23;;;5.10;;
13122;SDS011;6627;50.920;12.050;2023-04-30T09:07:41;6.10;;;4.30;;
13122;SDS011;6627;50.920;12.050;2023-04-30T09:10:13;10.17;;;4.90;;
13122;SDS011;6627;50.920;12.050;2023-04-30T09:12:42;9.40;;;4.40;;
13122;SDS011;6627;50.920;12.050;2023-04-30T09:15:10;11.03;;;3.90;;
13122;SDS011;6627;50.920;12.050;2023-04-30T09:17:38;7.93;;;4.00;;
13122;SDS011;6627;50.920;12.050;2023-04-30T09:20:06;9.50;;;4.47;;
13122;SDS011;6627;50.920;12.050;2023-04-30T09:22:37;8.90;;;3.90;;
13122;SDS011;6627;50.920;12.050;2023-04-30T09:25:06;9.10;;;4.23;;
13122;SDS011;6627;50.920;12.050;2023-04-30T09:27:35;10.20;;;4.33;;
13122;SDS011;6627;50.920;12.050;2023-04-30T09:30:04;9.40;;;3.93;;
13122;SDS011;6627;50.920;12.050;2023-04-30T09:32:33;8.30;;;4.37;;
13122;SDS011;6627;50.920;12.050;2023-04-30T09:35:00;7.67;;;3.90;;
13122;SDS011;6627;50.920;12.050;2023-04-30T09:37:36;6.13;;;3.80;;
13122;SDS011;6627;50.920;12.050;2023-04-30T09:40:04;8.70;;;4.47;;
13122;SDS011;6627;50.920;12.050;2023-04-30T09:42:33;7.37;;;4.13;;
13122;SDS011;6627;50.920;12.050;2023-04-30T09:45:00;7.47;;;4.00;;
13122;SDS011;6627;50.920;12.050;2023-04-30T09:47:32;6.93;;;4.27;;
13122;SDS011;6627;50.920;12.050;2023-04-30T09:50:00;8.17;;;4.07;;
13122;SDS011;6627;50.920;12.050;2023-04-30T09:52:28;11.17;;;4.37;;
13122;SDS011;6627;50.920;12.050;2023-04-30T09:54:57;7.20;;;3.97;;
13122;SDS011;6627;50.920;12.050;2023-04-30T09:57:25;9.83;;;3.90;;
13122;SDS011;6627;50.920;12.050;2023-04-30T09:59:56;9.10;;;4.50;;
13122;SDS011;6627;50.920;12.050;2023-04-30T10:02:26;7.67;;;4.20;;
13122;SDS011;6627;50.920;12.050;2023-04-30T10:04:55;8.80;;;3.93;;
13122;SDS011;6627;50.920;12.050;2023-04-30T10:07:25;8.80;;;4.00;;
13122;SDS011;6627;50.920;12.050;2023-04-30T10:10:06;6.53;;;4.00;;
13122;SDS011;6627;50.920;12.050;2023-04-30T10:12:37;7.87;;;3.70;;
13122;SDS011;6627;50.920;12.050;2023-04-30T10:15:12;8.70;;;4.00;;
13122;SDS011;6627;50.920;12.050;2023-04-30T10:17:44;6.37;;;3.40;;
13122;SDS011;6627;50.920;12.050;2023-04-30T10:20:19;7.57;;;4.17;;
13122;SDS011;6627;50.920;12.050;2023-04-30T10:22:53;8.30;;;3.70;;
13122;SDS011;6627;50.920;12.050;2023-04-30T10:25:23;5.87;;;3.47;;
13122;SDS011;6627;50.920;12.050;2023-04-30T10:27:51;7.70;;;3.43;;
13122;SDS011;6627;50.920;12.050;2023-04-30T10:30:18;6.40;;;3.60;;
13122;SDS011;6627;50.920;12.050;2023-04-30T10:32:50;11.00;;;3.97;;
13122;SDS011;6627;50.920;12.050;2023-04-30T10:35:39;7.33;;;3.63;;
13122;SDS011;6627;50.920;12.050;2023-04-30T10:38:17;6.90;;;3.70;;
13122;SDS011;6627;50.920;12.050;2023-04-30T10:40:55;5.43;;;3.80;;
13122;SDS011;6627;50.920;12.050;2023-04-30T10:43:25;7.00;;;3.70;;
13122;SDS011;6627;50.920;12.050;2023-04-30T10:45:56;6.90;;;4.07;;
13122;SDS011;6627;50.920;12.050;2023-04-30T10:48:24;8.00;;;4.30;;
13122;SDS011;6627;50.920;12.050;2023-04-30T10:50:52;6.53;;;3.70;;
13122;SDS011;6627;50.920;12.050;2023-04-30T10:53:22;8.40;;;3.93;;
13122;SDS011;6627;50.920;12.050;2023-04-30T10:55:52;6.57;;;3.43;;
13122;SDS011;6627;50.920;12.050;2023-04-30T10:58:24;10.07;;;3.87;;
13122;SDS011;6627;50.920;12.050;2023-04-30T11:01:02;5.77;;;3.60;;
13122;SDS011;6627;50.920;12.050;2023-04-30T11:03:33;6.27;;;3.50;;
13122;SDS011;6627;50.920;12.050;2023-04-30T11:06:06;13.13;;;3.97;;
13122;SDS011;6627;50.920;12.050;2023-04-30T11:08:38;6.43;;;3.97;;
13122;SDS011;6627;50.920;12.050;2023-04-30T11:11:11;5.50;;;3.73;;
13122;SDS011;6627;50.920;12.050;2023-04-30T11:13:46;6.97;;;3.70;;
13122;SDS011;6627;50.920;12.050;2023-04-30T11:16:27;6.53;;;4.07;;
13122;SDS011;6627;50.920;12.050;2023-04-30T11:18:57;8.37;;;3.80;;
13122;SDS011;6627;50.920;12.050;2023-04-30T11:21:31;6.63;;;3.70;;
13122;SDS011;6627;50.920;12.050;2023-04-30T11:24:01;8.17;;;4.63;;
13122;SDS011;6627;50.920;12.050;2023-04-30T11:26:30;10.90;;;4.90;;
13122;SDS011;6627;50.920;12.050;2023-04-30T11:29:39;6.90;;;4.40;;
13122;SDS011;6627;50.920;12.050;2023-04-30T11:32:08;6.40;;;3.63;;
13122;SDS011;6627;50.920;12.050;2023-04-30T11:34:37;6.77;;;4.00;;
13122;SDS011;6627;50.920;12.050;2023-04-30T11:37:04;6.20;;;4.20;;
13122;SDS011;6627;50.920;12.050;2023-04-30T11:39:32;8.07;;;4.37;;
13122;SDS011;6627;50.920;12.050;2023-04-30T11:42:04;7.77;;;4.07;;
13122;SDS011;6627;50.920;12.050;2023-04-30T11:44:32;10.13;;;4.47;;
13122;SDS011;6627;50.920;12.050;2023-04-30T11:47:00;5.30;;;4.13;;
13122;SDS011;6627;50.920;12.050;2023-04-30T11:49:28;8.10;;;3.93;;
13122;SDS011;6627;50.920;12.050;2023-04-30T11:51:56;5.37;;;3.20;;
13122;SDS011;6627;50.920;12.050;2023-04-30T11:54:24;5.73;;;3.20;;
13122;SDS011;6627;50.920;12.050;2023-04-30T11:56:53;4.57;;;3.17;;
13122;SDS011;6627;50.920;12.050;2023-04-30T11:59:28;5.40;;;3.30;;
13122;SDS011;6627;50.920;12.050;2023-04-30T12:01:56;6.13;;;2.57;;
13122;SDS011;6627;50.920;12.050;2023-04-30T12:04:24;7.33;;;3.50;;
13122;SDS011;6627;50.920;12.050;2023-04-30T12:06:52;4.80;;;3.20;;
13122;SDS011;6627;50.920;12.050;2023-04-30T12:09:20;7.73;;;3.33;;
13122;SDS011;6627;50.920;12.050;2023-04-30T12:11:48;4.40;;;2.97;;
13122;SDS011;6627;50.920;12.050;2023-04-30T12:14:15;6.77;;;3.10;;
13122;SDS011;6627;50.920;12.050;2023-04-30T12:16:44;6.20;;;3.50;;
13122;SDS011;6627;50.920;12.050;2023-04-30T12:19:14;7.50;;;3.70;;
13122;SDS011;6627;50.920;12.050;2023-04-30T12:21:42;7.87;;;3.73;;
13122;SDS011;6627;50.920;12.050;2023-04-30T12:24:12;7.27;;;4.17;;
13122;SDS011;6627;50.920;12.050;2023-04-30T12:26:41;6.33;;;4.10;;
13122;SDS011;6627;50.920;12.050;2023-04-30T12:29:09;10.40;;;4.80;;
13122;SDS011;6627;50.920;12.050;2023-04-30T12:31:40;9.73;;;4.57;;
13122;SDS011;6627;50.920;12.050;2023-04-30T12:34:11;7.67;;;4.37;;
13122;SDS011;6627;50.920;12.050;2023-04-30T12:36:41;6.70;;;4.20;;
13122;SDS011;6627;50.920;12.050;2023-04-30T12:39:09;7.57;;;4.07;;
13122;SDS011;6627;50.920;12.050;2023-04-30T12:41:40;5.87;;;4.17;;
13122;SDS011;6627;50.920;12.050;2023-04-30T12:44:13;6.77;;;3.27;;
13122;SDS011;6627;50.920;12.050;2023-04-30T12:46:43;4.80;;;2.97;;
13122;SDS011;6627;50.920;12.050;2023-04-30T12:49:20;6.57;;;2.90;;
13122;SDS011;6627;50.920;12.050;2023-04-30T12:51:49;8.43;;;3.20;;
13122;SDS011;6627;50.920;12.050;2023-04-30T12:54:23;6.20;;;3.50;;
13122;SDS011;6627;50.920;12.050;2023-04-30T12:56:59;6.40;;;3.50;;
13122;SDS011;6627;50.920;12.050;2023-04-30T12:59:29;7.73;;;3.50;;
13122;SDS011;6627;50.920;12.050;2023-04-30T13:02:06;5.90;;;3.50;;
13122;SDS011;6627;50.920;12.050;2023-04-30T13:04:36;8.30;;;3.57;;
13122;SDS011;6627;50.920;12.050;2023-04-30T13:07:05;7.13;;;3.33;;
13122;SDS011;6627;50.920;12.050;2023-04-30T13:09:32;4.33;;;2.97;;
13122;SDS011;6627;50.920;12.050;2023-04-30T13:12:01;7.07;;;3.60;;
13122;SDS011;6627;50.920;12.050;2023-04-30T13:14:29;6.23;;;3.73;;
13122;SDS011;6627;50.920;12.050;2023-04-30T13:16:58;5.67;;;3.17;;
13122;SDS011;6627;50.920;12.050;2023-04-30T13:19:28;7.20;;;3.37;;
13122;SDS011;6627;50.920;12.050;2023-04-30T13:21:56;5.57;;;3.50;;
13122;SDS011;6627;50.920;12.050;2023-04-30T13:24:25;6.63;;;3.33;;
13122;SDS011;6627;50.920;12.050;2023-04-30T13:26:52;7.83;;;3.30;;
13122;SDS011;6627;50.920;12.050;2023-04-30T13:29:19;4.60;;;2.70;;
13122;SDS011;6627;50.920;12.050;2023-04-30T13:31:47;5.87;;;3.10;;
13122;SDS011;6627;50.920;12.050;2023-04-30T13:34:15;4.27;;;2.83;;
13122;SDS011;6627;50.920;12.050;2023-04-30T13:36:42;6.23;;;3.27;;
13122;SDS011;6627;50.920;12.050;2023-04-30T13:39:12;5.03;;;2.50;;
13122;SDS011;6627;50.920;12.050;2023-04-30T13:41:41;5.20;;;2.90;;
13122;SDS011;6627;50.920;12.050;2023-04-30T13:44:08;7.57;;;3.00;;
13122;SDS011;6627;50.920;12.050;2023-04-30T13:46:35;7.03;;;3.40;;
13122;SDS011;6627;50.920;12.050;2023-04-30T13:49:03;7.03;;;2.90;;
13122;SDS011;6627;50.920;12.050;2023-04-30T13:51:30;6.43;;;3.30;;
13122;SDS011;6627;50.920;12.050;2023-04-30T13:53:58;8.87;;;3.00;;
13122;SDS011;6627;50.920;12.050;2023-04-30T13:56:27;6.60;;;2.90;;
13122;SDS011;6627;50.920;12.050;2023-04-30T13:58:55;6.37;;;3.30;;
13122;SDS011;6627;50.920;12.050;2023-04-30T14:01:24;8.53;;;2.90;;
13122;SDS011;6627;50.920;12.050;2023-04-30T14:03:51;7.30;;;3.23;;
13122;SDS011;6627;50.920;12.050;2023-04-30T14:06:19;5.93;;;3.20;;
13122;SDS011;6627;50.920;12.050;2023-04-30T14:08:46;6.50;;;3.50;;
13122;SDS011;6627;50.920;12.050;2023-04-30T14:11:14;8.50;;;3.30;;
13122;SDS011;6627;50.920;12.050;2023-04-30T14:13:42;4.77;;;3.00;;
13122;SDS011;6627;50.920;12.050;2023-04-30T14:16:11;6.73;;;3.33;;
13122;SDS011;6627;50.920;12.050;2023-04-30T14:18:38;8.40;;;3.20;;
13122;SDS011;6627;50.920;12.050;2023-04-30T14:21:07;6.93;;;3.07;;
13122;SDS011;6627;50.920;12.050;2023-04-30T14:23:35;8.93;;;3.00;;
13122;SDS011;6627;50.920;12.050;2023-04-30T14:26:04;6.83;;;2.60;;
13122;SDS011;6627;50.920;12.050;2023-04-30T14:28:31;4.83;;;2.90;;
13122;SDS011;6627;50.920;12.050;2023-04-30T14:31:00;5.93;;;3.10;;
13122;SDS011;6627;50.920;12.050;2023-04-30T14:33:30;4.30;;;2.70;;
13122;SDS011;6627;50.920;12.050;2023-04-30T14:35:58;8.27;;;2.83;;
13122;SDS011;6627;50.920;12.050;2023-04-30T14:38:25;4.33;;;2.80;;
13122;SDS011;6627;50.920;12.050;2023-04-30T14:40:53;6.13;;;2.67;;
13122;SDS011;6627;50.920;12.050;2023-04-30T14:43:21;5.67;;;2.73;;
13122;SDS011;6627;50.920;12.050;2023-04-30T14:45:49;4.43;;;2.43;;
13122;SDS011;6627;50.920;12.050;2023-04-30T14:48:18;7.37;;;2.60;;
13122;SDS011;6627;50.920;12.050;2023-04-30T14:50:45;5.00;;;2.70;;